Time;durP1;ratioP1;P1;durP2;ratioP2;P2;SDS_P1;SDS_P2;PMS_P1;PMS_P2;Temp;Humidity;BMP_temperature;BMP_pressure;BME280_temperature;BME280_humidity;BME280_pressure;Samples;Min_cycle;Max_cycle;Signal;HPM_P1;HPM_P2
2021/10/05 00:02:05;;;;;;;;;;;;;;;12.78;96.82;99123.20;112443;1195;64054;-94
2021/10/05 00:04:32;;;;;;;;;;;;;;;12.76;96.82;99118.91;112242;1195;61834;-93
2021/10/05 00:06:58;;;;;;;;;;;;;;;12.74;96.98;99117.38;112207;1195;61735;-93
2021/10/05 00:09:25;;;;;;;;;;;;;;;12.75;97.32;99117.73;112186;1196;65177;-93
2021/10/05 00:11:52;;;;;;;;;;;;;;;12.76;97.39;99119.79;112505;1196;61785;-94
2021/10/05 00:14:19;;;;;;;;;;;;;;;12.77;97.37;99120.60;112262;1196;64285;-92
2021/10/05 00:16:46;;;;;;;;;;;;;;;12.81;97.49;99122.27;112289;1196;61930;-93
2021/10/05 00:19:13;;;;;;;;;;;;;;;12.84;97.54;99119.15;112592;1195;61724;-94
2021/10/05 00:21:40;;;;;;;;;;;;;;;12.88;97.58;99113.53;112393;1196;66831;-93
2021/10/05 00:24:06;;;;;;;;;;;;;;;12.90;97.70;99109.95;112425;1195;61865;-94
2021/10/05 00:26:33;;;;;;;;;;;;;;;12.93;97.58;99105.67;112334;1196;62636;-93
2021/10/05 00:28:59;;;;;;;;;;;;;;;12.95;97.44;99102.11;112564;1195;61873;-94
2021/10/05 00:31:26;;;;;;;;;;;;;;;12.96;97.51;99100.95;112387;1196;61782;-94
2021/10/05 00:33:53;;;;;;;;;;;;;;;12.96;97.44;99100.08;112588;1197;65518;-94
2021/10/05 00:36:19;;;;;;;;;;;;;;;12.97;97.56;99094.88;112541;1195;61862;-95
2021/10/05 00:38:46;;;;;;;;;;;;;;;12.96;97.62;99093.83;112317;1195;64022;-93
2021/10/05 00:41:13;;;;;;;;;;;;;;;12.95;97.55;99089.45;112252;1195;61905;-94
2021/10/05 00:43:39;;;;;;;;;;;;;;;12.93;97.64;99086.92;112305;1196;61943;-94
2021/10/05 00:46:08;;;;;;;;;;;;;;;12.90;97.62;99084.44;112428;1196;66856;-93
2021/10/05 00:48:34;;;;;;;;;;;;;;;12.89;97.75;99086.49;112230;1196;61855;-93
2021/10/05 00:51:01;;;;;;;;;;;;;;;12.88;97.89;99088.58;112099;1196;62700;-93
2021/10/05 00:53:28;;;;;;;;;;;;;;;12.86;97.70;99087.13;112445;1196;61949;-93
2021/10/05 00:55:54;;;;;;;;;;;;;;;12.84;97.92;99083.19;112998;1196;61800;-93
2021/10/05 00:58:21;;;;;;;;;;;;;;;12.83;98.11;99082.17;112352;1196;66926;-93
2021/10/05 01:00:47;;;;;;;;;;;;;;;12.82;98.09;99080.27;112380;1197;61811;-94
2021/10/05 01:03:14;;;;;;;;;;;;;;;12.82;98.37;99073.01;112434;1196;62791;-94
2021/10/05 01:05:41;;;;;;;;;;;;;;;12.82;98.43;99073.52;112061;1196;61923;-94
2021/10/05 01:08:08;;;;;;;;;;;;;;;12.83;98.56;99074.00;112291;1196;61866;-93
2021/10/05 01:10:35;;;;;;;;;;;;;;;12.84;98.55;99075.83;112485;1196;66855;-93
2021/10/05 01:13:02;;;;;;;;;;;;;;;12.86;98.82;99075.48;112560;1196;61852;-93
2021/10/05 01:15:29;;;;;;;;;;;;;;;12.89;98.72;99073.90;112426;1196;64037;-93
2021/10/05 01:17:56;;;;;;;;;;;;;;;12.91;98.84;99066.92;112545;1196;61848;-93
2021/10/05 01:20:23;;;;;;;;;;;;;;;12.93;98.93;99060.32;112566;1196;61861;-94
2021/10/05 01:22:49;;;;;;;;;;;;;;;12.95;98.81;99059.84;112405;1196;65500;-93
2021/10/05 01:25:16;;;;;;;;;;;;;;;12.96;98.98;99057.31;112198;1197;61873;-93
2021/10/05 01:27:47;;;;;;;;;;;;;;;12.95;98.87;99059.84;113530;1195;64029;-93
2021/10/05 01:30:16;;;;;;;;;;;;;;;12.94;98.88;99056.52;113159;1195;61801;-93
2021/10/05 01:32:44;;;;;;;;;;;;;;;12.91;98.87;99054.63;112873;1195;61781;-95
2021/10/05 01:35:10;;;;;;;;;;;;;;;12.88;98.94;99051.46;113957;1195;65564;-93
2021/10/05 01:37:38;;;;;;;;;;;;;;;12.86;98.95;99051.27;112606;1196;61878;-93
2021/10/05 01:40:05;;;;;;;;;;;;;;;12.84;99.03;99051.95;112266;1197;62627;-94
2021/10/05 01:42:32;;;;;;;;;;;;;;;12.82;99.05;99047.86;112226;1195;61843;-93
2021/10/05 01:44:58;;;;;;;;;;;;;;;12.79;99.27;99044.32;112343;1196;61890;-94
2021/10/05 01:47:25;;;;;;;;;;;;;;;12.77;99.39;99050.21;112346;1195;66477;-93
2021/10/05 01:49:52;;;;;;;;;;;;;;;12.73;99.39;99052.02;112102;1196;62400;-93
2021/10/05 01:52:18;;;;;;;;;;;;;;;12.71;99.47;99049.88;112395;1195;64117;-94
2021/10/05 01:54:45;;;;;;;;;;;;;;;12.70;99.47;99044.96;112109;1196;62128;-94
2021/10/05 01:57:12;;;;;;;;;;;;;;;12.68;99.57;99039.55;112265;1195;61879;-94
2021/10/05 01:59:38;;;;;;;;;;;;;;;12.67;99.64;99037.36;112461;1196;66947;-94
2021/10/05 02:02:05;;;;;;;;;;;;;;;12.65;99.80;99039.08;112301;1196;61840;-93
2021/10/05 02:04:33;;;;;;;;;;;;;;;12.63;100.00;99039.24;112276;1196;62660;-94
2021/10/05 02:06:59;;;;;;;;;;;;;;;12.61;99.88;99034.92;112325;1195;61817;-93
2021/10/05 02:09:26;;;;;;;;;;;;;;;12.59;99.93;99034.55;112388;1196;61872;-93
2021/10/05 02:11:53;;;;;;;;;;;;;;;12.57;99.89;99034.73;112400;1195;66820;-93
2021/10/05 02:14:20;;;;;;;;;;;;;;;12.54;99.95;99032.77;112241;1195;61973;-93
2021/10/05 02:16:47;;;;;;;;;;;;;;;12.52;99.97;99035.10;112350;1196;64160;-93
2021/10/05 02:19:13;;;;;;;;;;;;;;;12.50;99.99;99031.50;112507;1195;61821;-93
2021/10/05 02:21:40;;;;;;;;;;;;;;;12.48;100.00;99025.40;112340;1197;61849;-94
2021/10/05 02:26:46;;;;;;;;;;;;;;;12.45;100.00;99022.80;112422;1195;61776;-93
2021/10/05 02:29:13;;;;;;;;;;;;;;;12.42;100.00;99014.45;112237;1195;62639;-93
2021/10/05 02:31:40;;;;;;;;;;;;;;;12.39;100.00;99007.92;112124;1196;61914;-94
2021/10/05 02:34:06;;;;;;;;;;;;;;;12.36;100.00;99006.73;112214;1195;61953;-94
2021/10/05 02:36:33;;;;;;;;;;;;;;;12.32;100.00;99002.75;112248;1195;66837;-94
2021/10/05 02:38:59;;;;;;;;;;;;;;;12.27;100.00;99005.02;112270;1196;61839;-93
2021/10/05 02:41:26;;;;;;;;;;;;;;;12.24;100.00;99002.39;112176;1196;64015;-92
2021/10/05 02:43:53;;;;;;;;;;;;;;;12.20;100.00;99006.44;112279;1196;61864;-93
2021/10/05 02:46:19;;;;;;;;;;;;;;;12.17;100.00;99005.77;112318;1195;61909;-93
2021/10/05 02:48:46;;;;;;;;;;;;;;;12.14;100.00;99004.72;112350;1196;66877;-93
2021/10/05 02:51:13;;;;;;;;;;;;;;;12.11;100.00;99002.10;112447;1194;61772;-93
2021/10/05 02:53:40;;;;;;;;;;;;;;;12.08;100.00;99002.70;112474;1197;62641;-93
2021/10/05 02:56:06;;;;;;;;;;;;;;;12.04;100.00;99002.23;112411;1196;61865;-93
2021/10/05 02:58:33;;;;;;;;;;;;;;;12.01;100.00;98998.41;112220;1196;61927;-93
2021/10/05 03:00:59;;;;;;;;;;;;;;;11.96;100.00;98998.38;112118;1196;66865;-94
2021/10/05 03:03:26;;;;;;;;;;;;;;;11.92;100.00;99002.25;112167;1196;62236;-94
2021/10/05 03:05:53;;;;;;;;;;;;;;;11.88;100.00;98999.34;112022;1196;62751;-93
2021/10/05 03:08:19;;;;;;;;;;;;;;;11.84;100.00;98997.79;112253;1195;61883;-93
2021/10/05 03:10:46;;;;;;;;;;;;;;;11.82;100.00;98994.04;112183;1195;61836;-94
2021/10/05 03:13:12;;;;;;;;;;;;;;;11.80;100.00;98989.76;112250;1196;66498;-94
2021/10/05 03:15:39;;;;;;;;;;;;;;;11.77;100.00;98992.59;112281;1196;61814;-93
2021/10/05 03:18:06;;;;;;;;;;;;;;;11.75;100.00;98993.30;112270;1195;64047;-94
2021/10/05 03:20:32;;;;;;;;;;;;;;;11.74;100.00;98993.39;112231;1195;61848;-93
2021/10/05 03:22:59;;;;;;;;;;;;;;;11.72;100.00;98991.38;112232;1196;61862;-94
2021/10/05 03:25:25;;;;;;;;;;;;;;;11.70;100.00;98989.23;112378;1196;65802;-94
2021/10/05 03:27:52;;;;;;;;;;;;;;;11.69;100.00;98987.48;112270;1196;62226;-94
2021/10/05 03:30:18;;;;;;;;;;;;;;;11.69;100.00;98981.79;112396;1196;64016;-93
2021/10/05 03:32:45;;;;;;;;;;;;;;;11.70;100.00;98976.02;112182;1196;61958;-93
2021/10/05 03:35:12;;;;;;;;;;;;;;;11.71;100.00;98978.27;112354;1196;61807;-91
2021/10/05 03:37:39;;;;;;;;;;;;;;;11.71;100.00;98978.44;112459;1196;66858;-94
2021/10/05 03:40:06;;;;;;;;;;;;;;;11.72;100.00;98974.63;112886;1196;61763;-93
2021/10/05 03:42:33;;;;;;;;;;;;;;;11.73;100.00;98972.60;112241;1196;62659;-96
2021/10/05 03:45:00;;;;;;;;;;;;;;;11.76;100.00;98972.92;112202;1195;61796;-92
2021/10/05 03:47:27;;;;;;;;;;;;;;;11.77;100.00;98967.34;112190;1196;61896;-93
2021/10/05 03:49:53;;;;;;;;;;;;;;;11.78;100.00;98965.66;112258;1196;66530;-94
2021/10/05 03:52:20;;;;;;;;;;;;;;;11.79;100.00;98967.73;112251;1196;61877;-94
2021/10/05 03:54:47;;;;;;;;;;;;;;;11.78;100.00;98971.04;112430;1196;63986;-95
2021/10/05 03:57:18;;;;;;;;;;;;;;;11.77;100.00;98967.01;112323;1195;61836;-94
2021/10/05 03:59:45;;;;;;;;;;;;;;;11.76;100.00;98968.62;112347;1196;61861;-93
2021/10/05 04:02:12;;;;;;;;;;;;;;;11.76;100.00;98969.41;112230;1195;66664;-94
2021/10/05 04:04:39;;;;;;;;;;;;;;;11.75;100.00;98962.52;112232;1196;61869;-93
2021/10/05 04:07:06;;;;;;;;;;;;;;;11.74;100.00;98960.83;112331;1195;64124;-94
2021/10/05 04:09:33;;;;;;;;;;;;;;;11.72;100.00;98958.27;112351;1195;61902;-93
2021/10/05 04:12:00;;;;;;;;;;;;;;;11.72;100.00;98956.18;112405;1195;61939;-94
2021/10/05 04:14:27;;;;;;;;;;;;;;;11.72;100.00;98955.64;112438;1196;65480;-94
2021/10/05 04:16:53;;;;;;;;;;;;;;;11.72;100.00;98957.21;112535;1196;61911;-92
2021/10/05 04:19:20;;;;;;;;;;;;;;;11.72;100.00;98954.73;112483;1196;64056;-93
2021/10/05 04:21:46;;;;;;;;;;;;;;;11.72;100.00;98952.96;112924;1196;61785;-93
2021/10/05 04:24:13;;;;;;;;;;;;;;;11.72;100.00;98950.97;113781;1195;61743;-93
2021/10/05 04:26:40;;;;;;;;;;;;;;;11.74;100.00;98952.60;113069;1196;66824;-95
2021/10/05 04:29:06;;;;;;;;;;;;;;;11.76;100.00;98956.23;112906;1196;61734;-92
2021/10/05 04:31:36;;;;;;;;;;;;;;;11.76;100.00;98955.27;114249;1195;63981;-92
2021/10/05 04:34:03;;;;;;;;;;;;;;;11.78;100.00;98953.05;112658;1196;61820;-95
2021/10/05 04:36:29;;;;;;;;;;;;;;;11.79;100.00;98952.96;112339;1196;61913;-94
2021/10/05 04:38:57;;;;;;;;;;;;;;;11.79;100.00;98956.88;112198;1196;65470;-93
2021/10/05 04:41:23;;;;;;;;;;;;;;;11.79;100.00;98959.87;112330;1196;61901;-94
2021/10/05 04:43:50;;;;;;;;;;;;;;;11.80;100.00;98961.98;112305;1195;63927;-94
2021/10/05 04:46:18;;;;;;;;;;;;;;;11.81;100.00;98961.75;112406;1195;61840;-93
2021/10/05 04:48:45;;;;;;;;;;;;;;;11.81;100.00;98964.05;112320;1195;61915;-93
2021/10/05 04:51:11;;;;;;;;;;;;;;;11.81;100.00;98961.56;112257;1196;65486;-93
2021/10/05 04:53:38;;;;;;;;;;;;;;;11.80;100.00;98958.95;112282;1195;61905;-95
2021/10/05 04:56:05;;;;;;;;;;;;;;;11.78;100.00;98959.82;112332;1195;63403;-93
2021/10/05 04:58:31;;;;;;;;;;;;;;;11.77;100.00;98963.08;112283;1195;62182;-93
2021/10/05 05:00:58;;;;;;;;;;;;;;;11.77;100.00;98966.11;112633;1195;61168;-94
2021/10/05 05:03:25;;;;;;;;;;;;;;;11.77;100.00;98964.83;112402;1196;61838;-94
2021/10/05 05:05:51;;;;;;;;;;;;;;;11.78;100.00;98962.83;112705;1195;61876;-93
2021/10/05 05:08:18;;;;;;;;;;;;;;;11.79;100.00;98960.45;112222;1196;62614;-93
2021/10/05 05:10:45;;;;;;;;;;;;;;;11.80;100.00;98953.95;112293;1196;61847;-94
2021/10/05 05:13:11;;;;;;;;;;;;;;;11.83;100.00;98953.04;112162;1196;61929;-94
2021/10/05 05:15:39;;;;;;;;;;;;;;;11.92;100.00;98950.47;112796;1196;66831;-95
2021/10/05 05:18:06;;;;;;;;;;;;;;;12.01;100.00;98949.23;112513;1196;62050;-93
2021/10/05 05:20:32;;;;;;;;;;;;;;;12.12;100.00;98950.92;112355;1195;62627;-93
2021/10/05 05:22:59;;;;;;;;;;;;;;;12.24;100.00;98954.45;112229;1197;61743;-94
2021/10/05 05:25:25;;;;;;;;;;;;;;;12.36;100.00;98949.89;112364;1195;61967;-93
2021/10/05 05:27:52;;;;;;;;;;;;;;;12.48;100.00;98943.09;112496;1196;65477;-93
2021/10/05 05:30:19;;;;;;;;;;;;;;;12.60;100.00;98939.13;112575;1195;61765;-94
2021/10/05 05:32:45;;;;;;;;;;;;;;;12.65;100.00;98942.13;112533;1195;64027;-93
2021/10/05 05:35:12;;;;;;;;;;;;;;;12.66;100.00;98945.84;112397;1196;61853;-94
2021/10/05 05:37:39;;;;;;;;;;;;;;;12.68;100.00;98943.14;112321;1196;62203;-93
2021/10/05 05:40:06;;;;;;;;;;;;;;;12.70;100.00;98940.31;112658;1194;66829;-93
2021/10/05 05:42:32;;;;;;;;;;;;;;;12.72;100.00;98944.77;112528;1195;61920;-94
2021/10/05 05:44:59;;;;;;;;;;;;;;;12.75;100.00;98946.54;112457;1196;64008;-94
2021/10/05 05:47:28;;;;;;;;;;;;;;;12.78;100.00;98947.20;112492;1197;61813;-92
2021/10/05 05:49:55;;;;;;;;;;;;;;;12.81;100.00;98948.24;112467;1195;62399;-92
2021/10/05 05:52:22;;;;;;;;;;;;;;;12.85;100.00;98950.43;112404;1195;66827;-93
2021/10/05 05:54:48;;;;;;;;;;;;;;;12.88;100.00;98946.95;112454;1196;61785;-94
2021/10/05 05:57:15;;;;;;;;;;;;;;;12.92;100.00;98941.13;112416;1196;63677;-93
2021/10/05 05:59:42;;;;;;;;;;;;;;;12.98;100.00;98938.94;112577;1196;61874;-95
2021/10/05 06:02:08;;;;;;;;;;;;;;;13.03;100.00;98934.77;112449;1196;61850;-94
2021/10/05 06:07:06;;;;;;;;;;;;;;;13.15;99.99;98937.58;112718;1193;61848;-94
2021/10/05 06:09:34;;;;;;;;;;;;;;;13.22;99.96;98940.95;112548;1194;64092;-92
2021/10/05 06:12:04;;;;;;;;;;;;;;;13.29;99.90;98938.68;112756;1193;61862;-91
2021/10/05 06:14:31;;;;;;;;;;;;;;;13.37;99.71;98939.09;112661;1193;61800;-95
2021/10/05 06:17:00;;;;;;;;;;;;;;;13.45;99.60;98935.73;112664;1193;65487;-93
2021/10/05 06:19:28;;;;;;;;;;;;;;;13.54;99.33;98930.17;112673;1195;61831;-94
2021/10/05 06:21:55;;;;;;;;;;;;;;;13.63;99.17;98927.88;112805;1194;64123;-93
2021/10/05 06:24:22;;;;;;;;;;;;;;;13.72;99.04;98929.00;112786;1194;61967;-93
2021/10/05 06:26:48;;;;;;;;;;;;;;;13.79;98.67;98926.21;112482;1196;61843;-94
2021/10/05 06:29:15;;;;;;;;;;;;;;;13.87;98.53;98926.48;112543;1194;66923;-93
2021/10/05 06:31:42;;;;;;;;;;;;;;;13.93;98.47;98922.23;112590;1195;61861;-95
2021/10/05 06:34:08;;;;;;;;;;;;;;;14.00;98.41;98927.20;112611;1193;64036;-96
2021/10/05 06:36:35;;;;;;;;;;;;;;;14.06;98.10;98928.16;112540;1194;62332;-96
2021/10/05 06:39:03;;;;;;;;;;;;;;;14.11;97.88;98922.90;112746;1194;61858;-95
2021/10/05 06:41:29;;;;;;;;;;;;;;;14.17;97.77;98926.70;112522;1193;65442;-94
2021/10/05 06:43:56;;;;;;;;;;;;;;;14.23;97.52;98918.86;112631;1193;61886;-94
2021/10/05 06:46:23;;;;;;;;;;;;;;;14.31;97.53;98919.48;112734;1196;62726;-95
2021/10/05 06:48:50;;;;;;;;;;;;;;;14.39;97.54;98919.11;112802;1194;61147;-96
2021/10/05 06:51:17;;;;;;;;;;;;;;;14.48;97.35;98914.45;112722;1195;61943;-93
2021/10/05 06:53:45;;;;;;;;;;;;;;;14.58;97.32;98911.02;112938;1193;67252;-93
2021/10/05 06:56:12;;;;;;;;;;;;;;;14.67;96.97;98912.92;112752;1196;61689;-95
2021/10/05 06:58:38;;;;;;;;;;;;;;;14.75;96.89;98912.19;112753;1195;63861;-94
2021/10/05 07:01:09;;;;;;;;;;;;;;;14.83;96.54;98912.72;112740;1197;61876;-93
2021/10/05 07:03:44;;;;;;;;;;;;;;;14.92;96.27;98909.16;112927;1193;61871;-95
2021/10/05 07:06:31;;;;;;;;;;;;;;;14.99;96.23;98908.15;112641;1196;66966;-95
2021/10/05 07:08:59;;;;;;;;;;;;;;;15.06;95.95;98904.83;112857;1193;61842;-94
2021/10/05 07:11:26;;;;;;;;;;;;;;;15.13;95.59;98901.42;112852;1193;64019;-94
2021/10/05 07:13:54;;;;;;;;;;;;;;;15.19;95.53;98910.02;112892;1197;61883;-95
2021/10/05 07:16:22;;;;;;;;;;;;;;;15.28;95.52;98905.68;112972;1193;61853;-94
2021/10/05 07:19:09;;;;;;;;;;;;;;;15.38;95.45;98903.86;113164;1193;65450;-94
2021/10/05 07:21:37;;;;;;;;;;;;;;;15.49;95.21;98900.06;113518;1193;61779;-94
2021/10/05 07:24:24;;;;;;;;;;;;;;;15.59;94.88;98897.20;113287;1194;63909;-94
2021/10/05 07:27:10;;;;;;;;;;;;;;;15.68;94.72;98898.88;113522;1193;61873;-93
2021/10/05 07:29:38;;;;;;;;;;;;;;;15.78;94.41;98901.23;113215;1193;61711;-94
2021/10/05 07:41:18;;;;;;;;;;;;;;;16.16;93.44;98881.77;113462;1195;61748;-94
2021/10/05 07:43:44;;;;;;;;;;;;;;;16.28;92.98;98883.02;112075;1196;61748;-93
2021/10/05 07:46:13;;;;;;;;;;;;;;;16.39;92.62;98879.02;111898;1196;66851;-91
2021/10/05 07:48:39;;;;;;;;;;;;;;;16.50;92.47;98873.37;111968;1196;62369;-90
2021/10/05 07:51:06;;;;;;;;;;;;;;;16.59;91.89;98870.71;111957;1197;64087;-91
2021/10/05 07:53:32;;;;;;;;;;;;;;;16.67;92.05;98875.14;112025;1195;61835;-91
2021/10/05 07:55:59;;;;;;;;;;;;;;;16.74;91.41;98878.89;111957;1196;61927;-91
2021/10/05 07:58:25;;;;;;;;;;;;;;;16.80;91.02;98873.23;111921;1196;61775;-91
2021/10/05 08:00:52;;;;;;;;;;;;;;;16.88;90.82;98874.42;112019;1195;61929;-91
2021/10/05 08:03:19;;;;;;;;;;;;;;;16.97;90.63;98868.87;111961;1197;61820;-90
2021/10/05 08:05:45;;;;;;;;;;;;;;;17.08;90.73;98875.23;111910;1196;61863;-93
2021/10/05 08:08:12;;;;;;;;;;;;;;;17.18;90.24;98875.52;111942;1196;61961;-92
2021/10/05 08:10:39;;;;;;;;;;;;;;;17.26;89.64;98875.13;111907;1196;65455;-91
2021/10/05 08:13:07;;;;;;;;;;;;;;;17.34;89.36;98870.58;111905;1196;61771;-92
2021/10/05 08:15:34;;;;;;;;;;;;;;;17.41;88.91;98868.48;112074;1195;63782;-95
2021/10/05 08:18:01;;;;;;;;;;;;;;;17.51;89.19;98866.20;111914;1197;61866;-92
2021/10/05 08:20:28;;;;;;;;;;;;;;;17.63;89.10;98861.80;111961;1195;61881;-92
2021/10/05 08:22:55;;;;;;;;;;;;;;;17.75;88.73;98861.37;112102;1196;66864;-90
2021/10/05 08:25:22;;;;;;;;;;;;;;;17.83;88.22;98859.16;111984;1196;61823;-91
2021/10/05 08:27:49;;;;;;;;;;;;;;;17.91;88.27;98852.07;111977;1196;62452;-92
2021/10/05 08:30:16;;;;;;;;;;;;;;;18.01;87.94;98843.50;111911;1196;61863;-91
2021/10/05 08:32:44;;;;;;;;;;;;;;;18.12;87.89;98843.27;111918;1196;61796;-91
2021/10/05 08:35:11;;;;;;;;;;;;;;;18.23;87.39;98843.98;111994;1196;66777;-92
2021/10/05 08:37:40;;;;;;;;;;;;;;;18.31;86.65;98838.85;112091;1195;61767;-91
2021/10/05 08:40:07;;;;;;;;;;;;;;;18.39;86.41;98834.13;111904;1196;64140;-92
2021/10/05 08:42:34;;;;;;;;;;;;;;;18.46;85.83;98832.83;111892;1195;61832;-91
2021/10/05 08:45:00;;;;;;;;;;;;;;;18.54;85.97;98833.88;111918;1196;61849;-92
2021/10/05 08:47:28;;;;;;;;;;;;;;;18.63;85.86;98836.27;111980;1196;65492;-91
2021/10/05 08:49:56;;;;;;;;;;;;;;;18.73;85.16;98828.48;112094;1196;61849;-94
2021/10/05 08:52:23;;;;;;;;;;;;;;;18.82;84.94;98823.97;111890;1196;63846;-91
2021/10/05 08:54:49;;;;;;;;;;;;;;;18.92;84.34;98820.05;111908;1196;61734;-91
2021/10/05 08:57:16;;;;;;;;;;;;;;;19.01;83.58;98816.77;112070;1197;61865;-93
2021/10/05 08:59:42;;;;;;;;;;;;;;;19.11;83.74;98817.71;111968;1196;66415;-91
2021/10/05 09:02:13;;;;;;;;;;;;;;;19.23;83.49;98822.86;111961;1196;61901;-90
2021/10/05 09:04:41;;;;;;;;;;;;;;;19.35;83.03;98823.08;112078;1196;63709;-91
2021/10/05 09:07:21;;;;;;;;;;;;;;;19.44;82.78;98820.24;111957;1196;61866;-91
2021/10/05 09:10:00;;;;;;;;;;;;;;;19.55;82.59;98817.34;112060;1196;61839;-92
2021/10/05 09:12:29;;;;;;;;;;;;;;;19.67;82.53;98808.65;111911;1196;65430;-92
2021/10/05 09:14:56;;;;;;;;;;;;;;;19.78;82.11;98801.21;112067;1195;61820;-91
2021/10/05 09:17:24;;;;;;;;;;;;;;;19.87;81.44;98805.63;112104;1196;63698;-92
2021/10/05 09:19:52;;;;;;;;;;;;;;;19.97;81.11;98800.94;112026;1196;61895;-92
2021/10/05 09:22:22;;;;;;;;;;;;;;;20.05;81.10;98798.75;112072;1195;61850;-92
2021/10/05 09:24:49;;;;;;;;;;;;;;;20.15;80.86;98799.83;111953;1196;65503;-92
2021/10/05 09:27:16;;;;;;;;;;;;;;;20.25;80.10;98798.79;112261;1196;61843;-94
2021/10/05 09:29:50;;;;;;;;;;;;;;;20.34;79.81;98796.85;113940;1196;62771;-88
2021/10/05 09:32:18;;;;;;;;;;;;;;;20.43;79.74;98792.25;112061;1196;61864;-88
2021/10/05 09:34:55;;;;;;;;;;;;;;;20.53;78.70;98790.05;111929;1196;61770;-88
2021/10/05 09:37:24;;;;;;;;;;;;;;;20.60;78.71;98784.23;112024;1196;66872;-88
2021/10/05 09:39:55;;;;;;;;;;;;;;;20.69;78.66;98782.50;112135;1196;61903;-91
2021/10/05 09:42:26;;;;;;;;;;;;;;;20.79;78.15;98787.21;112048;1196;62639;-89
2021/10/05 09:44:57;;;;;;;;;;;;;;;20.89;78.17;98787.33;111983;1196;61858;-91
2021/10/05 09:47:38;;;;;;;;;;;;;;;20.99;78.02;98788.80;111961;1196;61881;-88
2021/10/05 09:50:28;;;;;;;;;;;;;;;21.10;77.33;98788.40;112080;1195;66847;-88
2021/10/05 09:52:58;;;;;;;;;;;;;;;21.18;77.29;98784.88;112112;1196;61851;-84
2021/10/05 09:55:29;;;;;;;;;;;;;;;21.30;77.52;98778.30;112038;1196;64061;-84
2021/10/05 09:57:56;;;;;;;;;;;;;;;21.42;76.62;98776.52;112021;1195;61868;-83
2021/10/05 10:00:24;;;;;;;;;;;;;;;21.55;77.01;98776.02;111999;1196;61762;-83
2021/10/05 10:02:51;;;;;;;;;;;;;;;21.68;77.06;98776.07;112053;1195;67866;-83
2021/10/05 10:05:27;;;;;;;;;;;;;;;21.85;77.00;98779.86;112037;1196;61850;-83
2021/10/05 10:07:55;;;;;;;;;;;;;;;22.01;76.65;98778.93;112016;1196;64996;-83
2021/10/05 10:10:33;;;;;;;;;;;;;;;22.19;75.98;98774.85;111921;1197;61973;-83
2021/10/05 10:13:01;;;;;;;;;;;;;;;22.38;75.58;98769.90;112091;1196;61869;-83
2021/10/05 10:15:30;;;;;;;;;;;;;;;22.54;74.51;98765.41;112065;1196;65485;-84
2021/10/05 10:18:07;;;;;;;;;;;;;;;22.70;74.09;98764.73;112102;1196;61916;-84
2021/10/05 10:20:35;;;;;;;;;;;;;;;22.86;73.74;98761.73;112074;1196;64075;-83
2021/10/05 10:23:02;;;;;;;;;;;;;;;23.02;73.44;98760.83;112102;1196;61866;-84
2021/10/05 10:25:30;;;;;;;;;;;;;;;23.15;72.62;98759.96;112021;1196;61856;-84
2021/10/05 10:28:09;;;;;;;;;;;;;;;23.24;71.88;98758.19;112179;1195;66861;-83
2021/10/05 10:30:46;;;;;;;;;;;;;;;23.33;71.54;98757.97;111990;1196;61746;-84
2021/10/05 10:33:13;;;;;;;;;;;;;;;23.39;70.75;98759.76;112002;1196;62653;-83
2021/10/05 10:35:59;;;;;;;;;;;;;;;23.45;70.77;98758.83;112019;1196;61860;-83
2021/10/05 10:38:27;;;;;;;;;;;;;;;23.53;70.33;98757.82;111995;1195;61783;-83
2021/10/05 10:40:55;;;;;;;;;;;;;;;23.57;69.40;98752.94;112040;1195;66909;-83
2021/10/05 10:43:23;;;;;;;;;;;;;;;23.60;68.37;98751.84;111926;1196;61880;-83
2021/10/05 10:45:52;;;;;;;;;;;;;;;23.62;67.61;98741.81;112068;1195;64005;-83
2021/10/05 10:48:29;;;;;;;;;;;;;;;23.65;67.08;98740.38;112022;1196;61880;-83
2021/10/05 10:50:57;;;;;;;;;;;;;;;23.70;66.38;98736.98;112055;1196;61776;-83
2021/10/05 10:53:31;;;;;;;;;;;;;;;23.75;66.02;98731.52;111788;1196;65490;-83
2021/10/05 10:55:58;;;;;;;;;;;;;;;23.79;65.18;98732.14;111842;1196;61850;-83
2021/10/05 10:58:50;;;;;;;;;;;;;;;23.81;64.39;98739.49;111794;1196;61836;-83
2021/10/05 11:01:17;;;;;;;;;;;;;;;23.81;64.20;98738.13;111845;1197;61882;-83
2021/10/05 11:03:44;;;;;;;;;;;;;;;23.84;63.64;98734.20;111846;1196;61989;-83
2021/10/05 11:06:21;;;;;;;;;;;;;;;23.88;63.52;98737.80;111874;1196;67783;-83
2021/10/05 11:08:55;;;;;;;;;;;;;;;23.93;63.43;98730.14;111894;1196;61782;-83
2021/10/05 11:11:35;;;;;;;;;;;;;;;23.99;63.53;98732.09;111740;1196;63851;-83
2021/10/05 11:14:03;;;;;;;;;;;;;;;24.06;63.10;98732.08;111766;1196;61854;-83
2021/10/05 11:16:31;;;;;;;;;;;;;;;24.09;62.40;98726.08;111843;1196;61929;-83
2021/10/05 11:19:11;;;;;;;;;;;;;;;24.09;61.28;98725.56;111813;1196;66806;-83
2021/10/05 11:21:40;;;;;;;;;;;;;;;24.08;60.70;98720.77;111777;1196;61783;-83
2021/10/05 11:24:07;;;;;;;;;;;;;;;24.09;60.96;98717.14;111799;1196;64718;-83
2021/10/05 11:26:35;;;;;;;;;;;;;;;24.11;61.08;98715.81;111861;1196;61864;-83
2021/10/05 11:29:02;;;;;;;;;;;;;;;24.11;60.69;98708.95;111818;1196;61865;-83
2021/10/05 11:31:49;;;;;;;;;;;;;;;24.07;60.38;98707.66;111849;1196;66758;-83
2021/10/05 11:34:17;;;;;;;;;;;;;;;24.07;60.46;98701.46;111822;1196;61959;-84
2021/10/05 11:36:44;;;;;;;;;;;;;;;24.07;60.09;98710.14;111852;1196;63701;-82
2021/10/05 11:39:17;;;;;;;;;;;;;;;24.08;59.57;98712.36;111830;1196;61792;-82
2021/10/05 11:41:45;;;;;;;;;;;;;;;24.09;59.44;98697.54;111838;1196;62438;-81
2021/10/05 11:44:15;;;;;;;;;;;;;;;24.12;59.76;98694.73;111837;1196;65493;-83
2021/10/05 11:47:14;;;;;;;;;;;;;;;24.14;59.46;98700.46;111915;1196;61759;-83
2021/10/05 11:49:42;;;;;;;;;;;;;;;24.15;59.03;98697.88;111743;1197;71915;-83
2021/10/05 11:52:10;;;;;;;;;;;;;;;24.16;59.33;98694.36;111891;1196;61985;-83
2021/10/05 11:54:37;;;;;;;;;;;;;;;24.17;59.39;98697.34;111845;1196;61855;-82
2021/10/05 11:57:12;;;;;;;;;;;;;;;24.20;59.64;98690.92;111816;1196;66856;-84
2021/10/05 11:59:38;;;;;;;;;;;;;;;24.23;58.90;98689.09;111824;1196;61863;-84
2021/10/05 12:02:16;;;;;;;;;;;;;;;24.24;58.70;98683.87;111806;1196;64134;-84
2021/10/05 12:04:45;;;;;;;;;;;;;;;24.24;58.19;98684.54;111826;1196;61868;-84
2021/10/05 12:07:12;;;;;;;;;;;;;;;24.26;57.85;98677.93;111854;1196;61784;-83
2021/10/05 12:09:40;;;;;;;;;;;;;;;24.28;57.66;98681.81;111813;1196;66768;-84
2021/10/05 12:12:17;;;;;;;;;;;;;;;24.30;57.90;98681.58;111856;1196;61823;-82
2021/10/05 12:14:53;;;;;;;;;;;;;;;24.29;57.34;98681.61;111811;1196;63660;-82
2021/10/05 12:17:20;;;;;;;;;;;;;;;24.29;57.00;98675.98;111794;1196;61837;-84
2021/10/05 12:19:48;;;;;;;;;;;;;;;24.31;56.05;98672.73;111855;1196;61825;-84
2021/10/05 12:22:18;;;;;;;;;;;;;;;24.33;55.83;98667.61;111824;1196;66389;-84
2021/10/05 12:24:51;;;;;;;;;;;;;;;24.32;55.53;98666.84;111767;1196;61878;-83
2021/10/05 12:27:34;;;;;;;;;;;;;;;24.30;54.87;98665.31;111793;1196;64987;-84
2021/10/05 12:30:06;;;;;;;;;;;;;;;24.28;55.02;98660.48;111789;1196;61853;-84
2021/10/05 12:32:48;;;;;;;;;;;;;;;24.27;54.46;98653.27;111830;1196;61858;-84
2021/10/05 12:35:27;;;;;;;;;;;;;;;24.29;54.14;98649.01;111821;1196;66853;-84
2021/10/05 12:38:02;;;;;;;;;;;;;;;24.30;53.80;98650.70;111835;1196;61863;-81
2021/10/05 12:40:45;;;;;;;;;;;;;;;24.30;53.61;98646.41;111839;1196;62327;-82
2021/10/05 12:43:12;;;;;;;;;;;;;;;24.31;53.58;98649.66;111789;1196;61864;-82
2021/10/05 12:45:39;;;;;;;;;;;;;;;24.35;53.38;98642.93;111834;1196;61875;-82
2021/10/05 12:48:07;;;;;;;;;;;;;;;24.37;53.62;98641.85;111857;1196;67998;-82
2021/10/05 12:50:35;;;;;;;;;;;;;;;24.39;53.53;98645.68;111818;1196;62296;-82
2021/10/05 12:53:03;;;;;;;;;;;;;;;24.39;53.43;98642.50;111803;1197;64079;-82
2021/10/05 12:55:30;;;;;;;;;;;;;;;24.40;53.19;98637.55;111806;1196;62457;-82